DFDFF EDML-EDNY
Flight info
| Callsign | DFDFF |
|---|---|
| Flight time | 0h 56m |
| Altitude | 19000 |
| Route | DETUM DCT OTT DCT MANAL/N0280F180 DCT KONIN DCT DISUN DCT ATMAX Y100 MOMUK Y112 RAVED DCT ETOXU |
| Aircraft | PC12/L-SDFGRWY/S |
Departure
| Time | 2026-04-26 19:57 |
|---|---|
| Airport | Landshut Airfield (EDML) |
Arrival
| Time | 2026-04-26 20:54 |
|---|---|
| Airport | Bodensee Airport Friedrichshafen (EDNY) |
| Time | Latitude | Longitude | Altitude | Speed | Heading |
|---|---|---|---|---|---|
| 2026-04-26 19:32 | 48.51309 | 12.03589 | 1327 ft | 0 kts | 60° |
| 2026-04-26 19:51 | 48.51309 | 12.03590 | 1324 ft | 1 kts | 60° |
| 2026-04-26 19:51 | 48.51306 | 12.03626 | 1326 ft | 6 kts | 176° |
| 2026-04-26 19:52 | 48.51270 | 12.03529 | 1326 ft | 17 kts | 246° |
| 2026-04-26 19:52 | 48.51217 | 12.03348 | 1323 ft | 10 kts | 245° |
| 2026-04-26 19:52 | 48.51191 | 12.03261 | 1323 ft | 15 kts | 246° |
| 2026-04-26 19:52 | 48.51132 | 12.03055 | 1320 ft | 25 kts | 246° |
| 2026-04-26 19:53 | 48.51073 | 12.02851 | 1321 ft | 14 kts | 247° |
| 2026-04-26 19:53 | 48.51045 | 12.02777 | 1321 ft | 2 kts | 193° |
| 2026-04-26 19:53 | 48.51042 | 12.02776 | 1321 ft | 0 kts | 174° |
| 2026-04-26 19:56 | 48.51034 | 12.02779 | 1321 ft | 5 kts | 162° |
| 2026-04-26 19:56 | 48.51026 | 12.02872 | 1321 ft | 20 kts | 65° |
| 2026-04-26 19:57 | 48.51157 | 12.03319 | 1323 ft | 73 kts | 66° |
| 2026-04-26 19:57 | 48.51402 | 12.04192 | 1454 ft | 102 kts | 71° |
| 2026-04-26 19:57 | 48.51589 | 12.05309 | 1782 ft | 120 kts | 75° |
| 2026-04-26 19:57 | 48.51857 | 12.06555 | 2221 ft | 128 kts | 58° |
| 2026-04-26 19:58 | 48.52665 | 12.07205 | 2543 ft | 152 kts | 2° |
| 2026-04-26 19:58 | 48.53753 | 12.06819 | 2772 ft | 170 kts | 345° |
| 2026-04-26 19:58 | 48.54917 | 12.06252 | 2949 ft | 178 kts | 344° |
| 2026-04-26 19:58 | 48.56091 | 12.05664 | 3141 ft | 180 kts | 343° |
| 2026-04-26 19:59 | 48.57275 | 12.05020 | 3293 ft | 181 kts | 340° |
| 2026-04-26 19:59 | 48.58453 | 12.04320 | 3460 ft | 182 kts | 338° |
| 2026-04-26 19:59 | 48.59578 | 12.03574 | 3626 ft | 178 kts | 336° |
| 2026-04-26 19:59 | 48.60712 | 12.02754 | 3754 ft | 189 kts | 334° |
| 2026-04-26 20:00 | 48.61865 | 12.01976 | 3726 ft | 170 kts | 338° |
| 2026-04-26 20:00 | 48.63006 | 12.01254 | 3736 ft | 185 kts | 338° |
| 2026-04-26 20:00 | 48.64212 | 12.00489 | 3738 ft | 188 kts | 336° |
| 2026-04-26 20:00 | 48.65095 | 11.99096 | 3737 ft | 190 kts | 290° |
| 2026-04-26 20:01 | 48.65258 | 11.97117 | 3743 ft | 191 kts | 272° |
| 2026-04-26 20:01 | 48.65303 | 11.95125 | 3754 ft | 192 kts | 272° |
| 2026-04-26 20:01 | 48.65349 | 11.93105 | 3750 ft | 192 kts | 272° |
| 2026-04-26 20:01 | 48.65393 | 11.91094 | 3753 ft | 191 kts | 272° |
| 2026-04-26 20:02 | 48.65438 | 11.89076 | 3706 ft | 194 kts | 272° |
| 2026-04-26 20:02 | 48.65480 | 11.87146 | 3500 ft | 172 kts | 272° |
| 2026-04-26 20:02 | 48.65510 | 11.85353 | 3485 ft | 170 kts | 271° |
| 2026-04-26 20:02 | 48.65499 | 11.84212 | 3494 ft | 160 kts | 269° |
| 2026-04-26 20:03 | 48.65464 | 11.81961 | 3503 ft | 161 kts | 269° |
| 2026-04-26 20:03 | 48.65438 | 11.80262 | 3496 ft | 162 kts | 268° |
| 2026-04-26 20:03 | 48.64976 | 11.78773 | 3475 ft | 161 kts | 216° |
| 2026-04-26 20:03 | 48.63934 | 11.78466 | 3478 ft | 151 kts | 174° |
| 2026-04-26 20:04 | 48.62908 | 11.78586 | 3478 ft | 147 kts | 174° |
| 2026-04-26 20:04 | 48.61892 | 11.78691 | 3480 ft | 149 kts | 174° |
| 2026-04-26 20:04 | 48.60863 | 11.78801 | 3483 ft | 149 kts | 174° |
| 2026-04-26 20:04 | 48.59826 | 11.78917 | 3483 ft | 149 kts | 174° |
| 2026-04-26 20:05 | 48.58790 | 11.79030 | 3485 ft | 150 kts | 174° |
| 2026-04-26 20:05 | 48.57738 | 11.79146 | 3476 ft | 159 kts | 174° |
| 2026-04-26 20:05 | 48.56591 | 11.79278 | 3481 ft | 171 kts | 174° |
| 2026-04-26 20:05 | 48.55391 | 11.79419 | 3482 ft | 174 kts | 174° |
| 2026-04-26 20:06 | 48.54176 | 11.79562 | 3489 ft | 176 kts | 174° |
| 2026-04-26 20:06 | 48.52956 | 11.79709 | 3492 ft | 175 kts | 174° |
| 2026-04-26 20:06 | 48.51757 | 11.79854 | 3492 ft | 175 kts | 174° |
| 2026-04-26 20:06 | 48.50544 | 11.80000 | 3493 ft | 175 kts | 174° |
| 2026-04-26 20:07 | 48.49332 | 11.80147 | 3491 ft | 176 kts | 174° |
| 2026-04-26 20:07 | 48.48119 | 11.80291 | 3492 ft | 173 kts | 174° |
| 2026-04-26 20:07 | 48.47001 | 11.80421 | 3493 ft | 152 kts | 174° |
| 2026-04-26 20:07 | 48.45980 | 11.80525 | 3485 ft | 144 kts | 174° |
| 2026-04-26 20:08 | 48.44991 | 11.80614 | 3481 ft | 140 kts | 174° |
| 2026-04-26 20:08 | 48.44015 | 11.80704 | 3483 ft | 141 kts | 174° |
| 2026-04-26 20:08 | 48.43043 | 11.80791 | 3485 ft | 143 kts | 174° |
| 2026-04-26 20:08 | 48.42052 | 11.80883 | 3483 ft | 142 kts | 174° |
| 2026-04-26 20:09 | 48.41058 | 11.80935 | 3486 ft | 144 kts | 179° |
| 2026-04-26 20:09 | 48.40060 | 11.80844 | 3483 ft | 144 kts | 184° |
| 2026-04-26 20:09 | 48.39066 | 11.80680 | 3485 ft | 144 kts | 184° |
| 2026-04-26 20:09 | 48.38076 | 11.80517 | 3485 ft | 143 kts | 184° |
| 2026-04-26 20:10 | 48.37081 | 11.80353 | 3489 ft | 143 kts | 184° |
| 2026-04-26 20:10 | 48.36091 | 11.80187 | 3490 ft | 143 kts | 184° |
| 2026-04-26 20:10 | 48.35104 | 11.80023 | 3488 ft | 142 kts | 184° |
| 2026-04-26 20:10 | 48.34116 | 11.79857 | 3487 ft | 143 kts | 184° |
| 2026-04-26 20:11 | 48.33130 | 11.79694 | 3482 ft | 142 kts | 184° |
| 2026-04-26 20:11 | 48.32143 | 11.79593 | 3484 ft | 142 kts | 180° |
| 2026-04-26 20:11 | 48.31164 | 11.79578 | 3482 ft | 143 kts | 178° |
| 2026-04-26 20:12 | 48.29191 | 11.79576 | 3485 ft | 142 kts | 177° |
| 2026-04-26 20:12 | 48.28203 | 11.79630 | 3486 ft | 142 kts | 175° |
| 2026-04-26 20:12 | 48.27208 | 11.79700 | 3493 ft | 144 kts | 175° |
| 2026-04-26 20:12 | 48.26209 | 11.79772 | 3493 ft | 142 kts | 175° |
| 2026-04-26 20:13 | 48.25228 | 11.79843 | 3486 ft | 140 kts | 175° |
| 2026-04-26 20:13 | 48.24244 | 11.79914 | 3490 ft | 142 kts | 175° |
| 2026-04-26 20:13 | 48.23254 | 11.79982 | 3491 ft | 142 kts | 175° |
| 2026-04-26 20:13 | 48.22279 | 11.80050 | 3488 ft | 141 kts | 175° |
| 2026-04-26 20:14 | 48.21290 | 11.80118 | 3482 ft | 143 kts | 175° |
| 2026-04-26 20:14 | 48.20298 | 11.80155 | 3484 ft | 143 kts | 178° |
| 2026-04-26 20:14 | 48.19306 | 11.80129 | 3487 ft | 146 kts | 178° |
| 2026-04-26 20:14 | 48.18253 | 11.80119 | 4054 ft | 148 kts | 178° |
| 2026-04-26 20:15 | 48.17167 | 11.80116 | 4588 ft | 168 kts | 180° |
| 2026-04-26 20:15 | 48.15914 | 11.80106 | 4967 ft | 189 kts | 181° |
| 2026-04-26 20:15 | 48.14591 | 11.80098 | 5618 ft | 191 kts | 181° |
| 2026-04-26 20:15 | 48.13252 | 11.80092 | 6260 ft | 194 kts | 182° |
| 2026-04-26 20:16 | 48.11890 | 11.80087 | 6880 ft | 197 kts | 183° |
| 2026-04-26 20:16 | 48.10529 | 11.80081 | 7500 ft | 199 kts | 183° |
| 2026-04-26 20:16 | 48.09139 | 11.80018 | 8079 ft | 200 kts | 194° |
| 2026-04-26 20:16 | 48.08080 | 11.78894 | 8801 ft | 190 kts | 236° |
| 2026-04-26 20:17 | 48.07566 | 11.76981 | 8976 ft | 211 kts | 259° |
| 2026-04-26 20:17 | 48.07312 | 11.74714 | 9022 ft | 229 kts | 261° |
| 2026-04-26 20:17 | 48.06992 | 11.72328 | 9066 ft | 238 kts | 258° |
| 2026-04-26 20:17 | 48.06735 | 11.70723 | 9096 ft | 241 kts | 257° |
| 2026-04-26 20:18 | 48.06202 | 11.67440 | 9111 ft | 244 kts | 258° |
| 2026-04-26 20:18 | 48.05819 | 11.64978 | 9249 ft | 240 kts | 258° |
| 2026-04-26 20:18 | 48.05452 | 11.62624 | 9736 ft | 226 kts | 258° |
| 2026-04-26 20:18 | 48.05102 | 11.60405 | 10392 ft | 218 kts | 258° |
| 2026-04-26 20:19 | 48.04753 | 11.58182 | 10795 ft | 221 kts | 258° |
| 2026-04-26 20:19 | 48.04402 | 11.55946 | 11219 ft | 222 kts | 257° |
| 2026-04-26 20:19 | 48.04048 | 11.53696 | 11619 ft | 224 kts | 257° |
| 2026-04-26 20:19 | 48.03689 | 11.51423 | 12024 ft | 226 kts | 257° |
| 2026-04-26 20:20 | 48.03328 | 11.49132 | 12412 ft | 227 kts | 257° |
| 2026-04-26 20:20 | 48.02969 | 11.46863 | 12784 ft | 228 kts | 257° |
| 2026-04-26 20:20 | 48.02603 | 11.44556 | 13140 ft | 229 kts | 257° |
| 2026-04-26 20:20 | 48.02234 | 11.42227 | 13504 ft | 231 kts | 257° |
| 2026-04-26 20:21 | 48.01862 | 11.39889 | 13857 ft | 232 kts | 257° |
| 2026-04-26 20:21 | 48.01488 | 11.37536 | 14180 ft | 233 kts | 257° |
| 2026-04-26 20:21 | 48.01112 | 11.35172 | 14477 ft | 235 kts | 257° |
| 2026-04-26 20:21 | 48.00733 | 11.32796 | 14777 ft | 236 kts | 257° |
| 2026-04-26 20:22 | 48.00351 | 11.30410 | 15082 ft | 237 kts | 257° |
| 2026-04-26 20:22 | 47.99968 | 11.28013 | 15381 ft | 238 kts | 257° |
| 2026-04-26 20:22 | 47.99587 | 11.25637 | 15688 ft | 239 kts | 257° |
| 2026-04-26 20:22 | 47.99199 | 11.23217 | 15984 ft | 240 kts | 257° |
| 2026-04-26 20:23 | 47.98808 | 11.20784 | 16301 ft | 242 kts | 257° |
| 2026-04-26 20:23 | 47.98415 | 11.18340 | 16615 ft | 243 kts | 257° |
| 2026-04-26 20:23 | 47.98018 | 11.15883 | 16926 ft | 244 kts | 257° |
| 2026-04-26 20:23 | 47.97619 | 11.13409 | 17234 ft | 245 kts | 257° |
| 2026-04-26 20:24 | 47.97218 | 11.10929 | 17529 ft | 247 kts | 257° |
| 2026-04-26 20:24 | 47.96815 | 11.08436 | 17812 ft | 248 kts | 258° |
| 2026-04-26 20:24 | 47.96413 | 11.05959 | 18085 ft | 249 kts | 258° |
| 2026-04-26 20:24 | 47.96005 | 11.03442 | 18361 ft | 250 kts | 258° |
| 2026-04-26 20:25 | 47.95594 | 11.00913 | 18621 ft | 251 kts | 258° |
| 2026-04-26 20:25 | 47.95320 | 10.99233 | 18779 ft | 252 kts | 258° |
| 2026-04-26 20:25 | 47.94765 | 10.95834 | 19095 ft | 253 kts | 258° |
| 2026-04-26 20:25 | 47.94347 | 10.93273 | 19238 ft | 257 kts | 258° |
| 2026-04-26 20:26 | 47.93920 | 10.90654 | 19239 ft | 261 kts | 257° |
| 2026-04-26 20:26 | 47.93490 | 10.88030 | 19244 ft | 267 kts | 257° |
| 2026-04-26 20:26 | 47.93047 | 10.85331 | 19249 ft | 269 kts | 257° |
| 2026-04-26 20:26 | 47.92599 | 10.82610 | 19243 ft | 271 kts | 258° |
| 2026-04-26 20:27 | 47.92150 | 10.79887 | 19246 ft | 270 kts | 258° |
| 2026-04-26 20:27 | 47.91701 | 10.77163 | 19247 ft | 270 kts | 258° |
| 2026-04-26 20:27 | 47.91253 | 10.74445 | 19247 ft | 270 kts | 257° |
| 2026-04-26 20:27 | 47.90802 | 10.71723 | 19248 ft | 270 kts | 257° |
| 2026-04-26 20:28 | 47.90351 | 10.69001 | 19245 ft | 271 kts | 257° |
| 2026-04-26 20:28 | 47.89900 | 10.66282 | 19245 ft | 271 kts | 257° |
| 2026-04-26 20:28 | 47.89453 | 10.63596 | 19244 ft | 271 kts | 257° |
| 2026-04-26 20:28 | 47.89001 | 10.60875 | 19244 ft | 270 kts | 258° |
| 2026-04-26 20:29 | 47.88548 | 10.58158 | 19244 ft | 270 kts | 258° |
| 2026-04-26 20:29 | 47.88094 | 10.55446 | 19244 ft | 270 kts | 258° |
| 2026-04-26 20:29 | 47.87641 | 10.52735 | 19242 ft | 270 kts | 258° |
| 2026-04-26 20:29 | 47.87186 | 10.50023 | 19241 ft | 270 kts | 258° |
| 2026-04-26 20:30 | 47.86732 | 10.47314 | 19240 ft | 270 kts | 258° |
| 2026-04-26 20:30 | 47.86276 | 10.44605 | 19239 ft | 270 kts | 258° |
| 2026-04-26 20:30 | 47.85820 | 10.41895 | 19239 ft | 270 kts | 258° |
| 2026-04-26 20:30 | 47.85370 | 10.39225 | 19237 ft | 270 kts | 258° |
| 2026-04-26 20:31 | 47.84913 | 10.36518 | 19235 ft | 270 kts | 258° |
| 2026-04-26 20:31 | 47.84454 | 10.33807 | 19228 ft | 270 kts | 258° |
| 2026-04-26 20:31 | 47.83996 | 10.31104 | 19243 ft | 270 kts | 258° |
| 2026-04-26 20:31 | 47.83536 | 10.28394 | 19242 ft | 270 kts | 258° |
| 2026-04-26 20:32 | 47.83076 | 10.25684 | 19242 ft | 270 kts | 258° |
| 2026-04-26 20:32 | 47.82611 | 10.22950 | 19035 ft | 276 kts | 257° |
| 2026-04-26 20:32 | 47.82138 | 10.20174 | 18800 ft | 277 kts | 257° |
| 2026-04-26 20:32 | 47.81665 | 10.17404 | 18565 ft | 276 kts | 257° |
| 2026-04-26 20:33 | 47.81199 | 10.14677 | 18288 ft | 277 kts | 258° |
| 2026-04-26 20:33 | 47.80723 | 10.11899 | 18021 ft | 278 kts | 257° |
| 2026-04-26 20:33 | 47.80245 | 10.09117 | 17755 ft | 278 kts | 257° |
| 2026-04-26 20:33 | 47.79767 | 10.06334 | 17492 ft | 278 kts | 257° |
| 2026-04-26 20:34 | 47.79288 | 10.03552 | 17233 ft | 278 kts | 257° |
| 2026-04-26 20:34 | 47.78809 | 10.00772 | 16971 ft | 278 kts | 257° |
| 2026-04-26 20:34 | 47.78329 | 9.97994 | 16694 ft | 277 kts | 257° |
| 2026-04-26 20:34 | 47.77851 | 9.95227 | 16441 ft | 276 kts | 257° |
| 2026-04-26 20:35 | 47.77379 | 9.92501 | 16193 ft | 276 kts | 257° |
| 2026-04-26 20:35 | 47.76903 | 9.89765 | 15775 ft | 265 kts | 257° |
| 2026-04-26 20:35 | 47.76435 | 9.87068 | 14630 ft | 273 kts | 257° |
| 2026-04-26 20:35 | 47.75964 | 9.84355 | 13761 ft | 268 kts | 257° |
| 2026-04-26 20:36 | 47.75499 | 9.81687 | 12786 ft | 266 kts | 256° |
| 2026-04-26 20:36 | 47.75037 | 9.79046 | 11850 ft | 263 kts | 256° |
| 2026-04-26 20:36 | 47.74628 | 9.76419 | 10923 ft | 259 kts | 265° |
| 2026-04-26 20:36 | 47.74994 | 9.73839 | 10021 ft | 257 kts | 295° |
| 2026-04-26 20:37 | 47.75898 | 9.71566 | 9097 ft | 254 kts | 303° |
| 2026-04-26 20:37 | 47.76863 | 9.69411 | 8164 ft | 254 kts | 303° |
| 2026-04-26 20:37 | 47.77845 | 9.67242 | 7319 ft | 251 kts | 303° |
| 2026-04-26 20:37 | 47.78815 | 9.65095 | 6432 ft | 251 kts | 304° |
| 2026-04-26 20:38 | 47.79749 | 9.63005 | 6085 ft | 230 kts | 304° |
| 2026-04-26 20:38 | 47.80590 | 9.61091 | 5666 ft | 217 kts | 304° |
| 2026-04-26 20:38 | 47.81404 | 9.59223 | 5145 ft | 213 kts | 304° |
| 2026-04-26 20:38 | 47.82201 | 9.57390 | 4629 ft | 210 kts | 304° |
| 2026-04-26 20:39 | 47.82978 | 9.55568 | 4116 ft | 207 kts | 304° |
| 2026-04-26 20:39 | 47.83480 | 9.54364 | 3788 ft | 206 kts | 304° |
| 2026-04-26 20:39 | 47.84636 | 9.52252 | 3222 ft | 191 kts | 337° |
| 2026-04-26 20:39 | 47.85811 | 9.51780 | 3213 ft | 161 kts | 354° |
| 2026-04-26 20:40 | 47.86831 | 9.51477 | 3207 ft | 139 kts | 353° |
| 2026-04-26 20:40 | 47.87701 | 9.51302 | 3161 ft | 115 kts | 12° |
| 2026-04-26 20:40 | 47.88366 | 9.51884 | 3261 ft | 123 kts | 59° |
| 2026-04-26 20:40 | 47.88405 | 9.53182 | 3278 ft | 136 kts | 108° |
| 2026-04-26 20:41 | 47.87990 | 9.54399 | 3303 ft | 130 kts | 113° |
| 2026-04-26 20:41 | 47.87609 | 9.55494 | 3219 ft | 112 kts | 111° |
| 2026-04-26 20:41 | 47.87222 | 9.56614 | 3248 ft | 130 kts | 112° |
| 2026-04-26 20:41 | 47.86804 | 9.57834 | 3237 ft | 132 kts | 113° |
| 2026-04-26 20:42 | 47.86212 | 9.58849 | 3216 ft | 140 kts | 155° |
| 2026-04-26 20:42 | 47.85254 | 9.58595 | 3227 ft | 148 kts | 204° |
| 2026-04-26 20:42 | 47.84325 | 9.57875 | 3243 ft | 151 kts | 203° |
| 2026-04-26 20:42 | 47.83383 | 9.57172 | 3235 ft | 150 kts | 203° |
| 2026-04-26 20:43 | 47.82455 | 9.56475 | 3230 ft | 149 kts | 203° |
| 2026-04-26 20:43 | 47.81534 | 9.55772 | 3227 ft | 152 kts | 204° |
| 2026-04-26 20:43 | 47.80600 | 9.55048 | 3243 ft | 151 kts | 204° |
| 2026-04-26 20:43 | 47.79825 | 9.54023 | 3232 ft | 154 kts | 241° |
| 2026-04-26 20:44 | 47.79361 | 9.52586 | 3233 ft | 154 kts | 243° |
| 2026-04-26 20:44 | 47.78892 | 9.51155 | 3240 ft | 154 kts | 244° |
| 2026-04-26 20:44 | 47.78416 | 9.49724 | 3244 ft | 155 kts | 243° |
| 2026-04-26 20:44 | 47.77943 | 9.48297 | 3239 ft | 153 kts | 243° |
| 2026-04-26 20:45 | 47.77496 | 9.46927 | 3238 ft | 136 kts | 245° |
| 2026-04-26 20:45 | 47.77109 | 9.45766 | 3223 ft | 117 kts | 243° |
| 2026-04-26 20:45 | 47.76685 | 9.44779 | 3237 ft | 117 kts | 222° |
| 2026-04-26 20:45 | 47.76138 | 9.43928 | 3227 ft | 107 kts | 223° |
| 2026-04-26 20:46 | 47.75639 | 9.43142 | 3229 ft | 103 kts | 223° |
| 2026-04-26 20:46 | 47.75130 | 9.42398 | 3231 ft | 102 kts | 209° |
| 2026-04-26 20:46 | 47.74510 | 9.41923 | 3233 ft | 98 kts | 192° |
| 2026-04-26 20:46 | 47.73884 | 9.41758 | 3228 ft | 88 kts | 171° |
| 2026-04-26 20:47 | 47.73254 | 9.41703 | 3217 ft | 95 kts | 172° |
| 2026-04-26 20:47 | 47.73041 | 9.41682 | 3185 ft | 94 kts | 174° |
| 2026-04-26 20:47 | 47.71940 | 9.41685 | 2673 ft | 97 kts | 146° |
| 2026-04-26 20:47 | 47.71390 | 9.42225 | 2335 ft | 95 kts | 135° |
| 2026-04-26 20:48 | 47.70942 | 9.42844 | 2217 ft | 80 kts | 126° |
| 2026-04-26 20:48 | 47.70557 | 9.43479 | 2213 ft | 94 kts | 125° |
| 2026-04-26 20:48 | 47.70100 | 9.44252 | 2268 ft | 96 kts | 128° |
| 2026-04-26 20:48 | 47.69676 | 9.44928 | 2332 ft | 93 kts | 120° |
| 2026-04-26 20:49 | 47.69372 | 9.45818 | 2266 ft | 97 kts | 109° |
| 2026-04-26 20:49 | 47.69114 | 9.46670 | 2239 ft | 85 kts | 108° |
| 2026-04-26 20:49 | 47.68963 | 9.47202 | 2234 ft | 85 kts | 108° |
| 2026-04-26 20:49 | 47.68715 | 9.48050 | 2245 ft | 92 kts | 109° |
| 2026-04-26 20:50 | 47.68463 | 9.48931 | 2248 ft | 92 kts | 108° |
| 2026-04-26 20:50 | 47.68447 | 9.50056 | 2251 ft | 80 kts | 51° |
| 2026-04-26 20:50 | 47.68960 | 9.50192 | 2171 ft | 90 kts | 330° |
| 2026-04-26 20:50 | 47.69158 | 9.49348 | 2181 ft | 96 kts | 270° |
| 2026-04-26 20:51 | 47.69137 | 9.48676 | 2219 ft | 100 kts | 268° |
| 2026-04-26 20:51 | 47.68936 | 9.47704 | 2257 ft | 107 kts | 223° |
| 2026-04-26 20:51 | 47.68287 | 9.47512 | 2300 ft | 96 kts | 149° |
| 2026-04-26 20:51 | 47.67911 | 9.48277 | 2201 ft | 93 kts | 99° |
| 2026-04-26 20:52 | 47.68056 | 9.49445 | 2014 ft | 82 kts | 63° |
| 2026-04-26 20:52 | 47.68298 | 9.50188 | 1963 ft | 80 kts | 59° |
| 2026-04-26 20:52 | 47.68496 | 9.50677 | 1954 ft | 83 kts | 52° |
| 2026-04-26 20:52 | 47.68865 | 9.51273 | 2017 ft | 90 kts | 49° |
| 2026-04-26 20:53 | 47.69051 | 9.52136 | 2050 ft | 96 kts | 101° |
| 2026-04-26 20:53 | 47.68571 | 9.52817 | 1935 ft | 101 kts | 149° |
| 2026-04-26 20:53 | 47.67893 | 9.52996 | 1569 ft | 105 kts | 209° |
| 2026-04-26 20:53 | 47.67499 | 9.52090 | 1369 ft | 105 kts | 240° |
| 2026-04-26 20:54 | 47.67182 | 9.51277 | 1358 ft | 69 kts | 239° |
| 2026-04-26 20:54 | 47.67027 | 9.50881 | 1349 ft | 30 kts | 239° |
| 2026-04-26 20:54 | 47.66907 | 9.50694 | 1348 ft | 25 kts | 210° |
| 2026-04-26 20:54 | 47.66787 | 9.50605 | 1349 ft | 13 kts | 174° |
| 2026-04-26 20:55 | 47.66763 | 9.50670 | 1347 ft | 0 kts | 60° |
| 2026-04-26 20:57 | 47.66765 | 9.50674 | 1350 ft | 4 kts | 60° |
| 2026-04-26 20:57 | 47.66809 | 9.50788 | 1347 ft | 21 kts | 60° |
| 2026-04-26 20:57 | 47.66903 | 9.51034 | 1351 ft | 27 kts | 58° |
| 2026-04-26 20:58 | 47.66969 | 9.51203 | 1352 ft | 23 kts | 59° |
| 2026-04-26 20:58 | 47.67017 | 9.51324 | 1355 ft | 8 kts | 58° |
| 2026-04-26 20:58 | 47.67076 | 9.51300 | 1355 ft | 8 kts | 320° |
| 2026-04-26 20:58 | 47.67080 | 9.51295 | 1355 ft | 0 kts | 320° |
| 2026-04-26 20:59 | 47.67081 | 9.51294 | 1355 ft | 2 kts | 320° |
| 2026-04-26 21:00 | 47.67127 | 9.51236 | 1357 ft | 16 kts | 321° |
| 2026-04-26 21:00 | 47.67253 | 9.51086 | 1356 ft | 29 kts | 320° |
| 2026-04-26 21:00 | 47.67383 | 9.50946 | 1354 ft | 17 kts | 329° |
| 2026-04-26 21:00 | 47.67457 | 9.50885 | 1352 ft | 9 kts | 330° |
| 2026-04-26 21:01 | 47.67484 | 9.50903 | 1352 ft | 0 kts | 61° |